createdAt,value
2023-09-13T00:02:54.782Z,100150.07
2023-09-13T00:25:22.957Z,100130.22
2023-09-13T00:28:53.245Z,100121.55
2023-09-13T00:32:43.733Z,100125.60
2023-09-13T00:36:32.588Z,100122.86
2023-09-13T00:40:26.262Z,100129.52
2023-09-13T00:55:31.503Z,100120.23
2023-09-13T00:59:20.669Z,100118.67
2023-09-13T01:03:22.885Z,100124.69
2023-09-13T01:07:19.867Z,100125.52
2023-09-13T01:27:14.473Z,100122.88
2023-09-13T01:31:03.899Z,100126.54
2023-09-13T01:34:55.996Z,100121.52
2023-09-13T01:43:31.103Z,100128.98
2023-09-13T01:47:22.685Z,100126.15
2023-09-13T01:51:02.163Z,100129.74
2023-09-13T02:18:25.261Z,100117.21
2023-09-13T02:22:14.516Z,100118.06
2023-09-13T02:46:32.076Z,100114.73
2023-09-13T02:50:15.484Z,100120.36
2023-09-13T02:54:04.363Z,100113.89
2023-09-13T02:57:52.598Z,100116.22
2023-09-13T03:01:53.898Z,100116.71
2023-09-13T03:05:44.513Z,100120.45
2023-09-13T03:09:34.953Z,100118.21
2023-09-13T03:25:23.763Z,100115.67
2023-09-13T03:29:05.997Z,100110.30
2023-09-13T03:32:55.345Z,100114.75
2023-09-13T03:36:45.850Z,100112.46
2023-09-13T03:52:32.545Z,100106.10
2023-09-13T03:56:25.721Z,100104.88
2023-09-13T04:00:18.025Z,100107.85
2023-09-13T04:19:14.389Z,100106.27
2023-09-13T04:23:03.893Z,100110.80
2023-09-13T04:26:54.095Z,100105.71
2023-09-13T04:30:26.075Z,100100.76
2023-09-13T04:53:35.176Z,100106.41
2023-09-13T04:57:22.048Z,100104.61
2023-09-13T05:01:11.803Z,100099.95
2023-09-13T05:27:09.053Z,100118.34
2023-09-13T05:30:58.560Z,100117.88
2023-09-13T05:34:49.737Z,100115.57
2023-09-13T05:50:28.954Z,100111.75
2023-09-13T05:54:10.446Z,100109.63
2023-09-13T05:57:47.830Z,100108.77
2023-09-13T06:01:37.361Z,100113.73
2023-09-13T06:05:23.220Z,100114.86
2023-09-13T06:41:55.762Z,100126.56
2023-09-13T06:45:27.863Z,100124.21
2023-09-13T06:47:58.322Z,100127.27
2023-09-13T06:51:21.557Z,100134.06
2023-09-13T06:53:52.151Z,100131.45
2023-09-13T06:57:02.588Z,100129.56
2023-09-13T06:59:47.890Z,100133.83
2023-09-13T07:02:32.458Z,100137.18
2023-09-13T07:07:51.540Z,100128.83
2023-09-13T07:10:20.059Z,100131.92
2023-09-13T07:13:04.131Z,100132.39
2023-09-13T07:15:41.314Z,100129.23
2023-09-13T07:18:14.373Z,100135.46
2023-09-13T07:20:58.373Z,100131.44
2023-09-13T07:23:29.278Z,100132.14
2023-09-13T07:26:00.620Z,100129.85
2023-09-13T07:28:29.268Z,100124.16
2023-09-13T07:30:58.094Z,100126.15
2023-09-13T07:34:14.333Z,100128.20
2023-09-13T07:37:03.951Z,100135.64
2023-09-13T07:39:32.196Z,100132.79
2023-09-13T07:42:00.729Z,100135.82
2023-09-13T07:44:32.341Z,100144.90
2023-09-13T07:47:13.581Z,100144.38
2023-09-13T07:49:48.577Z,100140.06
2023-09-13T07:52:18.468Z,100141.46
2023-09-13T07:54:47.547Z,100148.19
2023-09-13T07:57:29.621Z,100150.42
2023-09-13T07:59:58.126Z,100151.73
2023-09-13T08:02:29.298Z,100143.96
2023-09-13T08:04:57.479Z,100147.01
2023-09-13T08:07:26.093Z,100142.90
2023-09-13T08:09:54.422Z,100148.06
2023-09-13T08:12:27.696Z,100147.24
2023-09-13T08:14:58.371Z,100152.21
2023-09-13T08:17:30.004Z,100155.29
2023-09-13T08:20:10.339Z,100150.14
2023-09-13T08:22:40.667Z,100153.93
2023-09-13T08:25:28.739Z,100154.02
2023-09-13T08:28:02.784Z,100151.83
2023-09-13T08:30:44.310Z,100155.71
2023-09-13T08:33:18.187Z,100152.63
2023-09-13T08:35:48.225Z,100150.90
2023-09-13T08:38:16.577Z,100151.23
2023-09-13T08:41:12.872Z,100145.80
2023-09-13T08:43:44.004Z,100145.31
2023-09-13T08:46:42.984Z,100141.79
2023-09-13T08:49:19.800Z,100135.45
2023-09-13T08:51:52.737Z,100137.27
2023-09-13T08:54:21.155Z,100125.55
2023-09-13T08:56:57.512Z,100122.55
2023-09-13T08:59:53.597Z,100124.42
2023-09-13T09:02:36.603Z,100124.83
2023-09-13T09:05:09.151Z,100128.69
2023-09-13T09:07:41.420Z,100128.25
2023-09-13T09:10:15.700Z,100124.63
2023-09-13T09:12:57.122Z,100125.41
2023-09-13T09:15:30.519Z,100120.23
2023-09-13T09:17:58.955Z,100119.60
2023-09-13T09:20:30.345Z,100127.16
2023-09-13T09:23:20.682Z,100118.21
2023-09-13T09:25:51.380Z,100111.80
2023-09-13T09:28:37.641Z,100111.38
2023-09-13T09:31:11.939Z,100115.34
2023-09-13T09:34:03.640Z,100114.75
2023-09-13T09:36:36.053Z,100113.23
2023-09-13T09:39:06.890Z,100110.98
2023-09-13T09:41:38.411Z,100108.02
2023-09-13T09:44:21.225Z,100105.08
2023-09-13T09:46:54.851Z,100104.85
2023-09-13T09:49:33.858Z,100105.59
2023-09-13T09:52:29.086Z,100096.40
2023-09-13T09:55:05.564Z,100094.44
2023-09-13T09:58:34.152Z,100097.50
2023-09-13T10:01:05.504Z,100101.11
2023-09-13T10:03:52.765Z,100091.36
2023-09-13T10:06:21.131Z,100095.55
2023-09-13T10:09:12.528Z,100096.39
2023-09-13T10:11:57.958Z,100094.14
2023-09-13T10:14:29.929Z,100090.54
2023-09-13T10:17:00.980Z,100092.23
2023-09-13T10:19:36.486Z,100081.65
2023-09-13T10:22:05.127Z,100079.58
2023-09-13T10:24:40.287Z,100071.48
2023-09-13T10:27:13.961Z,100071.41
2023-09-13T10:29:55.237Z,100068.90
2023-09-13T10:32:33.796Z,100069.24
2023-09-13T10:35:08.092Z,100064.91
2023-09-13T10:37:40.323Z,100071.08
2023-09-13T10:40:14.434Z,100070.60
2023-09-13T10:42:43.721Z,100071.48
2023-09-13T10:45:15.818Z,100071.56
2023-09-13T10:48:07.273Z,100067.80
2023-09-13T10:50:45.616Z,100067.23
2023-09-13T10:53:15.560Z,100064.83
2023-09-13T10:55:44.927Z,100063.56
2023-09-13T10:58:20.146Z,100063.71
2023-09-13T11:00:52.017Z,100059.39
2023-09-13T11:03:22.991Z,100058.33
2023-09-13T11:05:55.540Z,100056.88
2023-09-13T11:08:53.111Z,100053.27
2023-09-13T11:11:38.556Z,100047.60
2023-09-13T11:14:32.887Z,100044.95
2023-09-13T11:17:57.887Z,100049.84
2023-09-13T11:20:39.750Z,100050.23
2023-09-13T11:28:37.741Z,100050.70
2023-09-13T11:31:07.407Z,100046.02
2023-09-13T11:33:51.635Z,100049.23
2023-09-13T11:36:37.676Z,100055.39
2023-09-13T11:39:06.727Z,100051.37
2023-09-13T11:41:53.988Z,100051.73
2023-09-13T11:44:32.747Z,100049.00
2023-09-13T11:47:05.444Z,100049.80
2023-09-13T11:49:39.135Z,100053.71
2023-09-13T11:52:44.671Z,100054.39
2023-09-13T11:55:35.050Z,100057.45
2023-09-13T11:58:48.216Z,100053.80
2023-09-13T12:01:20.490Z,100054.55
2023-09-13T12:04:23.918Z,100056.69
2023-09-13T12:06:53.934Z,100054.67
2023-09-13T12:09:39.083Z,100054.02
2023-09-13T12:12:12.695Z,100052.05
2023-09-13T12:17:16.981Z,100049.08
2023-09-13T12:19:53.243Z,100049.84
2023-09-13T12:22:24.336Z,100051.98
2023-09-13T12:24:53.656Z,100042.94
2023-09-13T12:27:27.377Z,100045.68
2023-09-13T12:29:58.779Z,100045.39
2023-09-13T12:32:32.941Z,100040.63
2023-09-13T12:35:06.891Z,100046.42
2023-09-13T12:37:35.423Z,100046.80
2023-09-13T12:40:16.442Z,100047.50
2023-09-13T12:42:53.118Z,100045.66
2023-09-13T12:45:22.240Z,100041.52
2023-09-13T12:47:52.461Z,100052.02
2023-09-13T12:52:57.723Z,100043.17
2023-09-13T12:55:26.315Z,100038.34
2023-09-13T12:58:11.096Z,100040.37
2023-09-13T13:01:13.945Z,100035.88
2023-09-13T13:04:07.376Z,100029.42
2023-09-13T13:07:21.785Z,100027.80
2023-09-13T13:10:09.034Z,100020.52
2023-09-13T13:12:47.416Z,100016.81
2023-09-13T13:16:16.929Z,100012.66
2023-09-13T13:19:25.214Z,100007.71
2023-09-13T13:22:11.238Z,100003.80
2023-09-13T13:24:53.199Z,99991.77
2023-09-13T13:27:46.108Z,99985.10
2023-09-13T13:30:37.520Z,99979.40
2023-09-13T13:33:51.836Z,99977.14
2023-09-13T13:36:50.123Z,99977.47
2023-09-13T13:39:18.706Z,99972.98
2023-09-13T13:42:17.177Z,99978.46
2023-09-13T13:44:45.819Z,99982.13
2023-09-13T13:47:19.393Z,99982.83
2023-09-13T13:49:47.793Z,99981.81
2023-09-13T13:53:16.597Z,99982.83
2023-09-13T13:56:08.387Z,99975.05
2023-09-13T13:59:04.469Z,99972.52
2023-09-13T14:01:53.232Z,99967.27
2023-09-13T14:04:21.961Z,99961.36
2023-09-13T14:06:50.874Z,99956.86
2023-09-13T14:09:21.855Z,99962.31
2023-09-13T14:11:50.126Z,99958.15
2023-09-13T14:14:20.440Z,99950.80
2023-09-13T14:17:05.317Z,99949.81
2023-09-13T14:19:36.532Z,99952.60
2023-09-13T14:22:05.313Z,99950.80
2023-09-13T14:24:34.139Z,99947.27
2023-09-13T14:27:02.599Z,99948.48
2023-09-13T14:29:40.704Z,99948.52
2023-09-13T14:32:11.078Z,99938.45
2023-09-13T14:34:51.145Z,99934.73
2023-09-13T14:37:22.681Z,99922.65
2023-09-13T14:39:51.175Z,99921.08
2023-09-13T14:42:19.650Z,99924.95
2023-09-13T14:44:47.936Z,99919.19
2023-09-13T14:47:21.105Z,99921.84
2023-09-13T14:49:50.915Z,99918.78
2023-09-13T14:52:19.237Z,99914.63
2023-09-13T14:54:50.290Z,99909.84
2023-09-13T14:57:50.106Z,99907.13
2023-09-13T15:00:20.805Z,99908.81
2023-09-13T15:02:49.723Z,99905.70
2023-09-13T15:05:26.908Z,99903.31
2023-09-13T15:07:55.578Z,99906.38
2023-09-13T15:10:30.251Z,99907.52
2023-09-13T15:12:59.459Z,99904.81
2023-09-13T15:15:30.706Z,99903.84
2023-09-13T15:17:59.074Z,99903.99
2023-09-13T15:20:39.104Z,99906.84
2023-09-13T15:23:27.958Z,99903.52
2023-09-13T15:26:01.948Z,99906.34
2023-09-13T15:28:31.110Z,99905.02
2023-09-13T15:31:07.296Z,99901.13
2023-09-13T15:33:37.740Z,99902.97
2023-09-13T15:36:08.736Z,99908.10
2023-09-13T15:38:49.254Z,99910.67
2023-09-13T15:41:41.577Z,99904.16
2023-09-13T15:44:10.232Z,99903.36
2023-09-13T15:47:01.440Z,99900.35
2023-09-13T15:49:46.177Z,99895.41
2023-09-13T15:52:14.540Z,99897.48
2023-09-13T15:54:43.075Z,99890.71
2023-09-13T15:57:18.105Z,99888.38
2023-09-13T15:59:47.503Z,99891.48
2023-09-13T16:02:40.070Z,99891.19
2023-09-13T16:05:08.857Z,99893.80
2023-09-13T16:07:57.373Z,99883.71
2023-09-13T16:10:28.384Z,99891.17
2023-09-13T16:12:56.718Z,99888.70
2023-09-13T16:15:25.079Z,99888.16
2023-09-13T16:17:56.432Z,99888.50
2023-09-13T16:20:30.343Z,99891.02
2023-09-13T16:23:07.975Z,99892.50
2023-09-13T16:25:36.870Z,99897.05
2023-09-13T16:28:10.660Z,99905.98
2023-09-13T16:30:59.331Z,99905.02
2023-09-13T16:34:02.829Z,99908.09
2023-09-13T16:36:33.994Z,99918.52
2023-09-13T16:39:15.640Z,99915.91
2023-09-13T16:41:43.922Z,99910.02
2023-09-13T16:44:14.835Z,99911.03
2023-09-13T16:46:57.589Z,99904.84
2023-09-13T16:49:31.469Z,99902.22
2023-09-13T16:52:08.782Z,99898.81
2023-09-13T16:55:02.486Z,99898.72
2023-09-13T16:57:46.253Z,99895.59
2023-09-13T17:01:01.214Z,99887.75
2023-09-13T17:03:39.783Z,99879.36
2023-09-13T17:06:43.799Z,99878.79
2023-09-13T17:09:20.645Z,99877.73
2023-09-13T17:12:12.167Z,99878.52
2023-09-13T17:15:06.550Z,99885.49
2023-09-13T17:18:16.527Z,99889.34
2023-09-13T17:21:14.984Z,99899.59
2023-09-13T17:24:25.627Z,99903.39
2023-09-13T17:27:34.877Z,99905.17
2023-09-13T17:31:09.429Z,99911.54
2023-09-13T17:34:32.582Z,99920.31
2023-09-13T17:37:43.341Z,99922.04
2023-09-13T17:40:35.502Z,99922.00
2023-09-13T17:44:18.188Z,99919.16
2023-09-13T17:47:27.647Z,99916.70
2023-09-13T17:50:56.889Z,99912.45
2023-09-13T17:54:20.614Z,99915.85
2023-09-13T17:57:46.820Z,99915.46
2023-09-13T18:01:07.374Z,99909.64
2023-09-13T18:04:14.928Z,99926.64
2023-09-13T18:07:03.663Z,99965.06
2023-09-13T18:10:18.592Z,99956.66
2023-09-13T18:13:30.828Z,99955.96
2023-09-13T18:16:49.229Z,99966.26
2023-09-13T18:20:00.908Z,99965.78
2023-09-13T18:22:50.872Z,99983.63
2023-09-13T18:26:10.341Z,99994.29
2023-09-13T18:29:30.578Z,100007.73
2023-09-13T18:32:33.726Z,100016.41
2023-09-13T18:35:21.009Z,100028.34
2023-09-13T18:37:57.871Z,100035.32
2023-09-13T18:41:07.332Z,100037.14
2023-09-13T18:43:52.116Z,100040.39
2023-09-13T18:46:46.089Z,100053.50
2023-09-13T18:50:03.142Z,100063.73
2023-09-13T18:53:22.351Z,100094.50
2023-09-13T18:56:34.938Z,100112.11
2023-09-13T18:59:34.264Z,100126.76
2023-09-13T19:02:23.921Z,100132.49
2023-09-13T19:05:08.291Z,100139.81
2023-09-13T19:08:12.269Z,100142.61
2023-09-13T19:11:18.192Z,100145.41
2023-09-13T19:14:36.567Z,100145.58
2023-09-13T19:18:17.601Z,100150.80
2023-09-13T19:21:43.968Z,100160.94
2023-09-13T19:24:55.991Z,100153.73
2023-09-13T19:28:16.438Z,100158.90
2023-09-13T19:31:26.501Z,100145.41
2023-09-13T19:34:18.174Z,100142.77
2023-09-13T19:37:22.485Z,100137.32
2023-09-13T19:41:14.484Z,100141.67
2023-09-13T19:44:38.856Z,100151.65
2023-09-13T19:54:29.770Z,100156.30
2023-09-13T20:02:07.855Z,100149.67
2023-09-13T20:05:29.902Z,100140.48
2023-09-13T20:08:24.436Z,100135.25
2023-09-13T20:11:47.056Z,100126.64
2023-09-13T20:15:02.069Z,100119.04
2023-09-13T20:18:28.991Z,100113.09
2023-09-13T20:22:18.409Z,100096.83
2023-09-13T20:33:03.626Z,100125.06
2023-09-13T20:35:39.601Z,100129.73
2023-09-13T20:39:20.434Z,100118.55
2023-09-13T20:42:39.491Z,100099.06
2023-09-13T20:46:01.981Z,100089.79
2023-09-13T20:49:15.285Z,100100.00
2023-09-13T20:52:29.807Z,100100.66
2023-09-13T20:55:33.925Z,100097.75
2023-09-13T20:58:36.139Z,100104.92
2023-09-13T21:01:38.135Z,100098.96
2023-09-13T21:05:02.857Z,100090.04
2023-09-13T21:07:52.034Z,100099.35
2023-09-13T21:11:07.585Z,100096.05
2023-09-13T21:14:23.565Z,100094.14
2023-09-13T21:17:27.482Z,100096.70
2023-09-13T21:20:31.273Z,100093.02
2023-09-13T21:23:09.022Z,100089.75
2023-09-13T21:25:55.778Z,100091.10
2023-09-13T21:29:12.312Z,100081.34
2023-09-13T21:32:38.913Z,100090.20
2023-09-13T21:35:33.256Z,100085.43
2023-09-13T21:39:04.529Z,100082.04
2023-09-13T21:42:12.271Z,100080.27
2023-09-13T21:45:46.665Z,100085.58
2023-09-13T21:49:11.784Z,100096.23
2023-09-13T21:52:50.489Z,100100.64
2023-09-13T21:56:22.467Z,100100.73
2023-09-13T21:59:37.060Z,100096.46
